Tiempo atmosférico en la estación meteorológica de Murcia, Murcia (61 m.)



Fecha
DESCASC
Temp. máxima en grados centígrados (hora)
DESCASC
Temp. mínima en grados centígrados (hora)
DESCASC
Temp. media en grados centígrados
DESCASC
Racha de viento máxima en m/sg (hora)
DESCASC
Velocidad máxima media en intervalos de 10 minutos(hora)
DESCASC
Precipitaciones diarias en mm
DESCASC
Precipitaciones de 00:00 a 06:00 en mm
DESCASC
Precipitaciones de 06:00 a 12:00 en mm
DESCASC
Precipitaciones de 12:00 a 18:00 en mm
DESCASC
Precipitaciones de 18:00 a 24:00 en mm
DESCASC
07-01-2020 17.6 (16:10) 0.5 (00:00) 9.1 3.33 (02:20) 1.94 (05:30) 0 0 0 0 0
06-01-2020 17 (15:50) 0.5 (00:00) 8.8 4.17 (03:00) 2.22 (03:20) 0 0 0 0 0
27-12-2019 20 (15:30) 8.4 (00:00) 14.2 3.61 (10:10) 2.22 (10:10) 0 0 0 0 0
29-12-2019 17.3 (15:40) 6.5 (00:00) 11.9 3.61 (12:50) 2.22 (17:40) 0 0 0 0 0
01-01-2020 17 (15:40) 2.6 (00:00) 9.8 3.33 (03:00) 2.22 (11:40) 0 0 0 0 0
23-12-2019 23.2 (16:20) 7.5 (00:00) 15.4 4.44 (13:00) 2.5 (12:50) 0 0 0 0 0
15-01-2020 19.3 (16:10) 2.4 (00:00) 10.8 3.61 (23:00) 2.5 (00:10) 0 0 0 0 0
13-01-2020 16.6 (16:30) 1.7 (00:00) 9.2 4.44 (13:30) 2.5 (13:50) 0 0 0 0 0
03-01-2020 19.2 (15:50) 4.3 (00:00) 11.8 4.17 (03:20) 2.5 (01:50) 0 0 0 0 0
25-12-2019 22.4 (16:50) 5.4 (00:00) 13.9 3.89 (10:00) 2.5 (09:40) 0 0 0 0 0
24-12-2019 24.1 (16:20) 6.7 (00:00) 15.4 4.72 (14:10) 2.78 (12:50) 0 0 0 0 0
05-01-2020 17.5 (16:00) 3.1 (00:00) 10.3 3.89 (01:10) 2.78 (07:10) 0 0 0 0 0
09-01-2020 17.5 (16:40) 8 (00:00) 12.8 4.72 (12:50) 2.78 (09:30) 0 0 0 0 0
14-01-2020 17.9 (16:00) 1.3 (00:00) 9.6 5.28 (12:40) 3.06 (08:10) 0 0 0 0 0
31-12-2019 14.7 (16:20) 5 (00:00) 9.8 3.89 (22:30) 3.06 (22:30) 0 0 0 0 0
30-12-2019 16.8 (15:30) 7.1 (00:00) 11.9 5.28 (05:10) 3.33 (03:40) 0 0 0 0 0
16-01-2020 20.5 (16:20) 2.1 (00:00) 11.3 4.44 (06:50) 3.33 (06:50) 0 0 0 0 0
04-01-2020 17 (15:30) 5.4 (00:00) 11.2 5 (01:00) 3.33 (01:00) 0 0 0 0 0
02-01-2020 12.4 (15:20) 8.6 (00:00) 10.5 5.56 (20:50) 3.33 (20:50) 0 0 0 0 0
18-01-2020 16.7 (17:00) 7 (00:00) 11.9 6.67 (16:50) 3.61 (16:50) 0 0 0 0 0
08-01-2020 16.1 (15:20) 1.3 (00:00) 8.7 5.56 (15:30) 3.89 (15:40) 0 0 0 0 0
26-12-2019 24.9 (15:00) 7.4 (00:00) 16.1 6.67 (18:10) 4.17 (09:10) 0 0 0 0 0
11-01-2020 17.7 (15:50) 7.5 (00:00) 12.6 7.5 (03:40) 4.72 (03:40) 0 0 0 0 0
28-12-2019 17.3 (15:00) 4.7 (00:00) 11 7.5 (15:10) 4.72 (15:10) 0 0 0 0 0
17-01-2020 20.7 (15:30) 3.7 (00:00) 12.2 7.5 (16:00) 4.72 (16:00) 0 0 0 0 0
22-12-2019 23.6 (14:50) 11.8 (00:00) 17.7 13.33 (01:40) 5.83 (03:50) 0 0 0 0 0
10-01-2020 17.8 (16:10) 6.4 (00:00) 12.1 9.17 (16:20) 6.11 (16:20) 0 0 0 0 0
12-01-2020 18.4 (15:50) 1.8 (00:00) 10.1 10 (13:10) 6.11 (13:10) 0 0 0 0 0
20-01-2020 9 (00:00) 6.5 (00:00) 7.8 12.5 (06:10) 7.78 (00:20) 19.6 1.8 4 7.6 6.2
19-01-2020 13.4 (12:10) 6.3 (00:00) 9.8 13.33 (16:40) 8.33 (16:40) 3.6 0 0 0 3.6

Gráficas

Temp. máximas Temp. mínimas Temp. medias Precipitaciones Rachas de viento máximas Velocidades máximas media en intervalos de 10 minutos

Datos horarios

Fecha y hora oficial Temperatura (ºC) Velocidad del viento (km/h) Dirección del viento Racha (km/h) Dirección de racha Precipitación (mm) Presión (hPa) Tendencia (hPa) Humedad (%)
2020-01-20 23:00:00 7.7 4 Sudoeste 11 Sudoeste 0.2 1010.4 0.3 96
2020-01-20 22:00:00 7.6 4 Sudoeste 10 Oeste 0.4 1010.4 0.8 95
2020-01-20 21:00:00 7.8 5 Oeste 8 Noroeste 0.6 1010.4 1.3 96
2020-01-20 20:00:00 7.7 3 Sudoeste 9 Sur 2 1010.1 1.5 97
2020-01-20 19:00:00 7.8 5 Sur 14 Norte 2.8 1009.6 0.8 95
2020-01-20 18:00:00 8 4 Norte 23 Norte 3.2 1009.1 -0.1 92
2020-01-20 17:00:00 8.4 11 Norte 25 Norte 0.2 1008.6 -1 85
2020-01-20 16:00:00 8 8 Sudoeste 17 Oeste 1.6 1008.8 -1.4 94
2020-01-20 15:00:00 7.8 8 Oeste 18 Oeste 0.6 1009.2 -1.5 91
2020-01-20 14:00:00 7.9 10 Oeste 19 Oeste 0.8 1009.6 -1 90
2020-01-20 13:00:00 8 10 Noroeste 20 Oeste 1.2 1010.2 0.1 89
2020-01-20 12:00:00 7.4 9 Noroeste 17 Noroeste 1.4 1010.7 1.8 91
2020-01-20 11:00:00 7.1 10 Noroeste 21 Noroeste 0.6 1010.6 2.2 87
2020-01-20 10:00:00 6.6 5 Oeste 35 Nordeste 0.8 1010.1 2 87
2020-01-20 09:00:00 6.8 17 Nordeste 42 Nordeste 0.4 1008.9 0.6 85
2020-01-20 08:00:00 6.7 14 Norte 37 Norte 0.4 1008.4 0.3 81
2020-01-20 07:00:00 6.6 20 Noroeste 45 Noroeste 0.4 1008.1 -0.5 76
2020-01-20 06:00:00 7.8 26 Norte 43 Norte 0 1008.3 -0.5 63
2020-01-20 05:00:00 7.8 27 Noroeste 41 Norte 0 1008.1 -1.2 66
2020-01-20 04:00:00 8.1 26 Norte 43 Norte 0 1008.6 -0.9 68
2020-01-20 03:00:00 8 23 Norte 39 Norte 0 1008.8 -0.8 71
2020-01-20 02:00:00 7.7 23 Norte 41 Norte 1.2 1009.3 -0.2 79
2020-01-20 01:00:00 8.2 23 Norte 42 Norte 0.6 1009.5 0 76
2020-01-20 00:00:00 9 22 Norte 45 Norte 0 1009.6 0 68
2020-01-19 23:00:00 8.7 25 Noroeste 39 Noroeste 0 1009.5 -0.7 70
2020-01-19 22:00:00 8.2 18 Noroeste 33 Norte 0.6 1009.5 -0.3 78
2020-01-19 21:00:00 7.6 13 Noroeste 25 Noroeste 1.4 1009.6 0.2 85
2020-01-19 20:00:00 7.1 9 Oeste 27 Noroeste 1.6 1010.2 1.7 86
2020-01-19 19:00:00 8.6 19 Noroeste 40 Norte 0 1009.8 1.7 65
2020-01-19 18:00:00 9 21 Norte 40 Noroeste 0 1009.4 1.6 63
2020-01-19 17:00:00 9.8 27 Norte 48 Norte 0 1008.5 0.8 58
2020-01-19 16:00:00 11.2 26 Norte 42 Norte 0 1008.1 0.2 55
2020-01-19 15:00:00 11.4 20 Noroeste 37 Noroeste 0 1007.8 -0.8 64
2020-01-19 14:00:00 12.8 19 Noroeste 36 Noroeste 0 1007.7 -1 56
2020-01-19 13:00:00 13.2 22 Noroeste 38 Noroeste 0 1007.9 -0.6 54
2020-01-19 12:00:00 13.1 22 Noroeste 35 Noroeste 0 1008.6 0.2 55
2020-01-19 11:00:00 11.9 19 Noroeste 37 Oeste 0 1008.7 0.3 61
2020-01-19 10:00:00 11.2 14 Noroeste 24 Noroeste 0 1008.5 -0.3 65
2020-01-19 09:00:00 10.9 17 Noroeste 30 Noroeste 0 1008.4 -0.2 65
2020-01-19 08:00:00 9.9 17 Oeste 31 Oeste 0 1008.4 -1.1 67
2020-01-19 07:00:00 10.2 14 Oeste 33 Noroeste 0 1008.8 -1.1 68
2020-01-19 06:00:00 6.8 4 Este 12 Sudoeste 0 1008.6 -2.4 90
2020-01-19 05:00:00 7 4 Oeste 19 Norte 0 1009.5 -2.2 89
2020-01-19 04:00:00 7.1 5 Oeste 12 Oeste 0 1009.9 -2.6 93
2020-01-19 03:00:00 8.4 8 Oeste 12 Oeste 0 1011 -2.1 92
2020-01-19 02:00:00 7.5 6 Oeste 9 Sudoeste 0 1011.7 -1.8 91
2020-01-19 01:00:00 7.7 3 Sudoeste 9 Sudoeste 0 1012.5 -1.7 93
2020-01-19 00:00:00 7.8 3 Noroeste 8 Oeste 0 1013.1 -2 89
2020-01-18 23:00:00 10.5 6 Oeste 12 Oeste 0 1013.5 -2.5 83
2020-01-18 22:00:00 11.7 6 Sudoeste 18 Sudoeste 0 1014.2 -2.2 80
2020-01-18 21:00:00 11.9 8 Oeste 17 Oeste 0 1015.1 -2.1 76
2020-01-18 20:00:00 11.1 3 Norte 14 Sudoeste 0 1016 -2.2 76
2020-01-18 19:00:00 13.2 6 Sur 19 Sudoeste 0 1016.4 -2.6 68
2020-01-18 18:00:00 14.6 6 Sur 22 Sudoeste 0 1017.2 -2.6 62
2020-01-18 17:00:00 16.7 10 Sudoeste 24 Sudoeste 0 1018.2 -2.6 52
2020-01-18 16:00:00 15.8 5 Sudoeste 14 Sudoeste 0 1019 -3.9 56
2020-01-18 15:00:00 15 6 Sudoeste 13 Sudoeste 0 1019.8 -4.7 59
2020-01-18 14:00:00 13.9 5 Sudoeste 9 Sudoeste 0 1020.8 -4.2 64
2020-01-18 13:00:00 12.1 5 Sur 8 Sur 0 1022.9 -1.9 77
2020-01-18 12:00:00 11.3 4 Sudoeste 10 Oeste 0 1024.5 0.1 73
2020-01-18 11:00:00 9.8 6 Sudoeste 14 Sur 0 1025 1.2 73
2020-01-18 10:00:00 9.6 6 Sur 10 Sur 0 1024.8 1.8 76
2020-01-18 09:00:00 8.1 5 Sudoeste 9 Sudoeste 0 1024.4 1.7 79
2020-01-18 08:00:00 7.8 5 Sudoeste 13 Sur 0 1023.8 0.8 80
2020-01-18 07:00:00 8.1 4 Oeste 12 Oeste 0 1023 -0.8 79
2020-01-18 06:00:00 7.8 6 Sur 10 Sur 0 1022.7 -1.4 80
2020-01-18 05:00:00 7.4 2 Noroeste 10 Oeste 0 1023 -2 79
2020-01-18 04:00:00 9.4 9 Sur 13 Sur 0 1023.8 -1.3 73
2020-01-18 03:00:00 9.3 4 Sudoeste 13 Oeste 0 1024.1 -1.3 74
2020-01-18 02:00:00 11 6 Oeste 14 Oeste 0 1025 -0.1 67
2020-01-18 01:00:00 10.8 8 Oeste 11 Oeste 0 1025.1 0.6 68
2020-01-18 00:00:00 9.8 6 Oeste 10 Oeste 0 1025.4 1.2 73
2020-01-17 23:00:00 10.6 4 Oeste 9 Oeste 0 1025.1 1.8 68
2020-01-17 22:00:00 10.1 2 Oeste 8 Oeste 0 1024.5 1.6 68
2020-01-17 21:00:00 11.8 4 Sudoeste 10 Sudeste 0 1024.2 2.1 64
2020-01-17 20:00:00 14.3 8 Oeste 11 Oeste 0 1023.3 1.6 52
2020-01-17 19:00:00 15.5 6 Noroeste 12 Oeste 0 1022.9 1.3 49
2020-01-17 18:00:00 18 7 Oeste 20 Oeste 0 1022.1 0.5 41
2020-01-17 17:00:00 19.3 13 Oeste 26 Noroeste 0 1021.7 -0.4 37
2020-01-17 16:00:00 20.2 17 Noroeste 27 Noroeste 0 1021.6 -1.6 36
2020-01-17 15:00:00 20.4 5 Sudeste 12 Sudeste 0 1021.6 -2.6 34
2020-01-17 14:00:00 20 6 Sudeste 12 Sudeste 0 1022.1 -2.1 35
2020-01-17 13:00:00 17.9 6 Sudoeste 11 Sur 0 1023.2 -0.4 39
2020-01-17 12:00:00 14.7 5 Sudoeste 10 Sur 0 1024.2 1.4 45
2020-01-17 11:00:00 12 6 Oeste 12 Noroeste 0 1024.2 1.4 54
2020-01-17 10:00:00 8.8 3 Sudoeste 10 Sudoeste 0 1023.6 1.9 67
2020-01-17 09:00:00 6.5 4 Sur 14 Oeste 0 1022.8 1.2 76
2020-01-17 08:00:00 5 5 Oeste 17 Noroeste 0 1022.8 1.1 83
2020-01-17 07:00:00 5.1 8 Oeste 12 Oeste 0 1021.7 -0.3 82
2020-01-17 06:00:00 4.4 8 Oeste 10 Oeste 0 1021.6 0 86
2020-01-17 05:00:00 4.1 4 Oeste 10 Noroeste 0 1021.7 0.2 87
2020-01-17 04:00:00 4.9 5 Oeste 8 Oeste 0 1022 0.7 85
2020-01-17 03:00:00 6.1 4 Sudoeste 10 Sudoeste 0 1021.6 -0.3 81
2020-01-17 02:00:00 6.9 4 Sudoeste 13 Noroeste 0 1021.5 0 78
2020-01-17 01:00:00 6.8 3 Oeste 8 Oeste 0 1021.3 0.3 80
2020-01-17 00:00:00 8.6 5 Oeste 15 Oeste 0 1021.9 1.1 73
2020-01-16 23:00:00 7.8 6 Oeste 10 Noroeste 0 1021.5 1.1 79
2020-01-16 22:00:00 8.1 6 Sudoeste 8 Sudoeste 0 1021 1.1 79
2020-01-16 21:00:00 8.7 4 Sur 6 Sur 0 1020.8 1.6 73
2020-01-16 20:00:00 10.4 4 Oeste 6 Sudoeste 0 1020.4 1.3 64
2020-01-16 19:00:00 13.5 5 Sudoeste 9 Sudoeste 0 1019.9 0.8 54
2020-01-16 18:00:00 17.7 5 Sur 9 Sudeste 0 1019.2 -0.2 45
2020-01-16 17:00:00 20.4 0 Calma 10 Sur 0 1019.1 -0.8 33
2020-01-16 16:00:00 20.3 5 Sur 12 Sudeste 0 1019.1 -1.8 33
2020-01-16 15:00:00 19.6 5 Sudoeste 8 Sudoeste 0 1019.4 -2.6 34
2020-01-16 14:00:00 18.7 3 Noroeste 8 Noroeste 0 1019.9 -2.2 36
2020-01-16 13:00:00 17 4 Sur 10 Oeste 0 1020.9 -1.1 38
2020-01-16 12:00:00 13.9 7 Noroeste 14 Noroeste 0 1022 0.4 44
2020-01-16 11:00:00 12.1 5 Oeste 9 Noroeste 0 1022.1 0.7 48
2020-01-16 10:00:00 8.6 6 Noroeste 12 Noroeste 0 1022 1 63
2020-01-16 09:00:00 4 6 Noroeste 11 Noroeste 0 1021.6 0.7 85
2020-01-16 08:00:00 3.3 4 Sudoeste 8 Oeste 0 1021.4 0.3 82
2020-01-16 07:00:00 5.5 9 Noroeste 16 Noroeste 0 1021 -0.2 77
2020-01-16 06:00:00 3.5 5 Oeste 8 Oeste 0 1020.9 -0.1 87
2020-01-16 05:00:00 5.2 4 Oeste 10 Oeste 0 1021.1 0.3 80
2020-01-16 04:00:00 3.3 3 Oeste 6 Sudoeste 0 1021.2 0.1 84
2020-01-16 03:00:00 6.4 5 Sudoeste 12 Oeste 0 1021 -0.2 76
2020-01-16 02:00:00 6.8 8 Oeste 14 Noroeste 0 1020.8 -0.4 75
2020-01-16 01:00:00 6.7 3 Oeste 8 Oeste 0 1021.1 0.4 77
2020-01-16 00:00:00 7.2 2 Sudoeste 9 Oeste 0 1021.2 0.8 76
2020-01-15 23:00:00 9 8 Oeste 13 Oeste 0 1021.2 1 71
2020-01-15 22:00:00 9.4 4 Oeste 10 Oeste 0 1020.7 1.1 69
2020-01-15 21:00:00 9.3 4 Sur 10 Sudoeste 0 1020.4 1.4 69
2020-01-15 20:00:00 10.9 5 Oeste 10 Sudoeste 0 1020.2 1.7 63
2020-01-15 19:00:00 13.1 6 Sudoeste 10 Oeste 0 1019.6 1.3 55
2020-01-15 18:00:00 16.6 2 Sudoeste 6 Sudeste 0 1019 0.6 46
2020-01-15 17:00:00 18.5 5 Este 7 Este 0 1018.5 -0.3 39
2020-01-15 16:00:00 18.8 2 Sur 8 Sudoeste 0 1018.3 -1.3 38
2020-01-15 15:00:00 17.4 5 Sudoeste 9 Sudoeste 0 1018.4 -1.9 40
2020-01-15 14:00:00 15.7 5 Sudoeste 10 Sudoeste 0 1018.8 -1.6 43
2020-01-15 13:00:00 14.7 3 Sudoeste 10 Noroeste 0 1019.6 0 44
2020-01-15 12:00:00 11.7 4 Noroeste 8 Noroeste 0 1020.3 1.3 51
2020-01-15 11:00:00 9.7 3 Sur 13 Oeste 0 1020.4 1.8 62
2020-01-15 10:00:00 7.2 5 Noroeste 12 Noroeste 0 1019.6 1.7 68
2020-01-15 09:00:00 2.8 0 Calma 10 Noroeste 0 1019 1.8 82
2020-01-15 08:00:00 4.1 7 Oeste 11 Noroeste 0 1018.6 1.6 77
2020-01-15 07:00:00 3.3 5 Noroeste 9 Noroeste 0 1017.9 0.7 82
2020-01-15 06:00:00 4 5 Oeste 9 Noroeste 0 1017.2 0.3 78
2020-01-15 05:00:00 3 0 Calma 10 Oeste 0 1017 0.3 81
2020-01-15 04:00:00 4.7 8 Oeste 12 Oeste 0 1017.2 0.2 77
2020-01-15 03:00:00 4.9 6 Noroeste 12 Oeste 0 1016.9 0 75
2020-01-15 02:00:00 4.3 4 Oeste 6 Oeste 0 1016.7 0.1 78
2020-01-15 01:00:00 5.9 4 Oeste 10 Oeste 0 1017 0.8 72
2020-01-15 00:00:00 7.1 8 Oeste 12 Oeste 0 1016.9 0.8 68
2020-01-14 23:00:00 7.9 8 Sudoeste 13 Sudoeste 0 1016.6 0.8 67
2020-01-14 22:00:00 7.3 4 Oeste 7 Sudoeste 0 1016.2 1 78
2020-01-14 21:00:00 7.8 4 Oeste 7 Norte 0 1016.1 1.6 78
2020-01-14 20:00:00 9.5 2 Oeste 9 Sudoeste 0 1015.8 1.6 71
2020-01-14 19:00:00 11 4 Sudoeste 10 Sudoeste 0 1015.2 1 61
2020-01-14 18:00:00 13.3 4 Oeste 6 Oeste 0 1014.5 0.3 45
2020-01-14 17:00:00 17.5 0 Calma 7 Sur 0 1014.2 -0.7 32
2020-01-14 16:00:00 17.7 3 Sur 10 Oeste 0 1014.2 -1.7 29
2020-01-14 15:00:00 16.6 5 Noroeste 12 Norte 0 1014.2 -2.9 30
2020-01-14 14:00:00 16.2 6 Sur 13 Noroeste 0 1014.9 -2.5 31
2020-01-14 13:00:00 14.5 9 Noroeste 19 Norte 0 1015.9 -1.4 37
2020-01-14 12:00:00 13.1 5 Sur 10 Sudoeste 0 1017.1 0.2 40
2020-01-14 11:00:00 10.7 6 Sudoeste 14 Oeste 0 1017.4 0.7 47
2020-01-14 10:00:00 7.6 8 Sudoeste 13 Sudoeste 0 1017.3 1.1 58
2020-01-14 09:00:00 4.9 7 Oeste 14 Oeste 0 1016.9 1.1 67
2020-01-14 08:00:00 3 8 Oeste 12 Oeste 0 1016.7 1.2 77
2020-01-14 07:00:00 1.3 4 Noroeste 8 Oeste 0 1016.2 0.6 87
2020-01-14 06:00:00 3.1 4 Sudoeste 9 Sudoeste 0 1015.8 0 80
2020-01-14 05:00:00 3.5 8 Oeste 10 Oeste 0 1015.5 -0.4 82
2020-01-14 04:00:00 2.8 3 Oeste 8 Noroeste 0 1015.6 -0.7 89
2020-01-14 03:00:00 3.9 4 Oeste 6 Oeste 0 1015.8 -0.9 88
2020-01-14 02:00:00 3.9 3 Oeste 9 Oeste 0 1015.9 -0.9 87
2020-01-14 01:00:00 6.5 4 Sudoeste 10 Noroeste 0 1016.3 -0.4 81
2020-01-14 00:00:00 7.3 5 Oeste 11 Oeste 0 1016.7 -0.2 84
2020-01-13 23:00:00 7.8 5 Sudoeste 11 Oeste 0 1016.8 -0.3 86
2020-01-13 22:00:00 8.6 5 Oeste 11 Oeste 0 1016.7 0 86
2020-01-13 21:00:00 8.6 3 Noroeste 8 Oeste 0 1016.9 0.8 84
2020-01-13 20:00:00 10.3 8 Oeste 9 Oeste 0 1017.1 0.9 81
2020-01-13 19:00:00 11.5 5 Oeste 8 Sudoeste 0 1016.7 0.3 75
2020-01-13 18:00:00 14 2 Oeste 5 Sur 0 1016.1 -0.9 61
2020-01-13 17:00:00 16 4 Sur 9 Sur 0 1016.2 -1.6 52
2020-01-13 16:00:00 16.1 3 Sur 9 Oeste 0 1016.4 -3 48
2020-01-13 15:00:00 15.5 5 Oeste 11 Oeste 0 1017 -3.8 47
2020-01-13 14:00:00 14.2 7 Sudoeste 16 Oeste 0 1017.8 -3.5 50
2020-01-13 13:00:00 12.2 6 Sudoeste 10 Sudoeste 0 1019.4 -1.8 52
2020-01-13 12:00:00 9.6 7 Oeste 14 Oeste 0 1020.8 -0.1 57
2020-01-13 11:00:00 7.9 6 Oeste 12 Oeste 0 1021.3 0.4 64
2020-01-13 10:00:00 5.3 4 Sudoeste 12 Noroeste 0 1021.2 0.4 79
2020-01-13 09:00:00 1.8 3 Sur 9 Noroeste 0 1020.9 0.3 89
2020-01-13 08:00:00 1.9 0 Calma 7 Sudoeste 0 1020.9 -0.3 90
2020-01-13 07:00:00 3 4 Sudoeste 9 Oeste 0 1020.8 -0.8 89
2020-01-13 06:00:00 3.1 4 Oeste 11 Oeste 0 1020.6 -1.5 90
2020-01-13 05:00:00 3.8 8 Oeste 11 Noroeste 0 1021.2 -1.1 89
2020-01-13 04:00:00 4.2 5 Oeste 8 Noroeste 0 1021.6 -1.6 90
2020-01-13 03:00:00 5.3 5 Oeste 12 Oeste 0 1022.1 -1.5 88
2020-01-13 02:00:00 5.9 7 Oeste 12 Sudoeste 0 1022.3 -1.4 88
2020-01-13 01:00:00 5.6 7 Oeste 12 Oeste 0 1023.2 -0.3 91
2020-01-13 00:00:00 6.8 4 Sudoeste 9 Oeste 0 1023.6 0.5 90
2020-01-12 23:00:00 6.6 3 Sudoeste 7 Noroeste 0 1023.7 1.1 88
2020-01-12 22:00:00 7.3 7 Noroeste 8 Noroeste 0 1023.5 1.7 88
2020-01-12 21:00:00 8.2 7 Nordeste 15 Nordeste 0 1023.1 2 84
2020-01-12 20:00:00 9.6 11 Nordeste 22 Nordeste 0 1022.6 1.8 76
2020-01-12 19:00:00 10.7 11 Nordeste 21 Nordeste 0 1021.8 1.4 72
2020-01-12 18:00:00 12.9 14 Nordeste 22 Este 0 1021.1 0.5 63
2020-01-12 17:00:00 16.6 17 Nordeste 24 Nordeste 0 1020.8 -0.3 40
2020-01-12 16:00:00 18.2 7 Noroeste 19 Noroeste 0 1020.4 -1.7 28
2020-01-12 15:00:00 17.8 11 Noroeste 23 Noroeste 0 1020.6 -2.8 29
2020-01-12 14:00:00 16.6 14 Noroeste 36 Oeste 0 1021.1 -2.8 34
2020-01-12 13:00:00 15.3 21 Oeste 33 Noroeste 0 1022.1 -1.6 36
2020-01-12 12:00:00 12.9 12 Oeste 21 Sudoeste 0 1023.4 0 45
2020-01-12 11:00:00 9.7 9 Sudoeste 16 Sudoeste 0 1023.9 0.6 57
2020-01-12 10:00:00 6.6 7 Sudoeste 11 Oeste 0 1023.7 0.6 71
2020-01-12 09:00:00 2.7 7 Sudoeste 10 Sudoeste 0 1023.4 0.2 86
2020-01-12 08:00:00 1.9 3 Sudoeste 5 Sudoeste 0 1023.3 0 90
2020-01-12 07:00:00 2.6 3 Sudoeste 12 Noroeste 0 1023.1 -0.6 86
2020-01-12 06:00:00 3.6 6 Oeste 9 Noroeste 0 1023.2 -0.6 88
2020-01-12 05:00:00 4.4 3 Sudoeste 11 Oeste 0 1023.3 -0.5 86
2020-01-12 04:00:00 4.6 4 Oeste 7 Oeste 0 1023.7 -0.1 89
2020-01-12 03:00:00 4.6 5 Oeste 6 Noroeste 0 1023.8 -0.2 89
2020-01-12 02:00:00 5.7 4 Oeste 8 Sudoeste 0 1023.8 -0.2 86
2020-01-12 01:00:00 6.8 5 Sudoeste 11 Oeste 0 1023.8 0.1 83
2020-01-12 00:00:00 7.5 5 Sudoeste 13 Oeste 0 1024 0.3 84
2020-01-11 23:00:00 8.4 4 Sudoeste 11 Oeste 0 1024 0.6 82
2020-01-11 22:00:00 8.4 4 Sudoeste 8 Sur 0 1023.7 0.7 86
2020-01-11 21:00:00 9.1 4 Noroeste 8 Este 0 1023.7 1.6 83
2020-01-11 20:00:00 10.4 6 Nordeste 16 Nordeste 0 1023.4 1.7 78
2020-01-11 19:00:00 11.5 8 Nordeste 17 Este 0 1023 1.4 71
2020-01-11 18:00:00 15.1 4 Este 8 Nordeste 0 1022.1 0.4 46
2020-01-11 17:00:00 16.8 4 Norte 11 Noroeste 0 1021.7 -0.6 39
2020-01-11 16:00:00 17.5 4 Nordeste 15 Noroeste 0 1021.6 -1.6 36
2020-01-11 15:00:00 17.3 6 Noroeste 19 Norte 0 1021.7 -2.2 36
2020-01-11 14:00:00 16.7 5 Norte 18 Noroeste 0 1022.3 -1.9 39
2020-01-11 13:00:00 15.7 12 Noroeste 19 Noroeste 0 1023.2 -0.4 42
2020-01-11 12:00:00 14.4 12 Noroeste 19 Noroeste 0 1023.9 0.9 47
2020-01-11 11:00:00 12.6 9 Oeste 15 Oeste 0 1024.2 1.7 51
2020-01-11 10:00:00 10.8 4 Oeste 12 Noroeste 0 1023.6 1.5 58
2020-01-11 09:00:00 8.8 4 Noroeste 14 Oeste 0 1023 1.3 64
2020-01-11 08:00:00 9.8 11 Oeste 18 Oeste 0 1022.5 1.1 59
2020-01-11 07:00:00 10.7 5 Sudoeste 10 Sur 0 1022.1 1 59
2020-01-11 06:00:00 10.9 4 Oeste 17 Noroeste 0 1021.7 0.9 59
2020-01-11 05:00:00 11.1 11 Noroeste 23 Noroeste 0 1021.4 0.9 61
2020-01-11 04:00:00 11 16 Noroeste 27 Noroeste 0 1021.1 0.2 61
2020-01-11 03:00:00 11.5 15 Noroeste 26 Noroeste 0 1020.8 -0.4 61
2020-01-11 02:00:00 11.2 10 Noroeste 16 Noroeste 0 1020.5 -0.2 62
2020-01-11 01:00:00 12.2 9 Norte 25 Noroeste 0 1020.9 0.4 59
2020-01-11 00:00:00 12.2 11 Noroeste 26 Norte 0 1021.2 1.3 58
2020-01-10 23:00:00 12.3 18 Norte 27 Noroeste 0 1020.7 1.6 58
2020-01-10 22:00:00 12.3 10 Norte 31 Norte 0 1020.5 2.3 57
2020-01-10 21:00:00 12.7 18 Norte 31 Norte 0 1019.9 3 55
2020-01-10 20:00:00 12.4 13 Nordeste 24 Nordeste 0 1019.1 2.6 55
2020-01-10 19:00:00 12.1 14 Nordeste 26 Norte 0 1018.2 2.2 51
2020-01-10 18:00:00 13.9 8 Nordeste 24 Nordeste 0 1016.9 0.7 45
2020-01-10 17:00:00 15.5 11 Norte 33 Norte 0 1016.5 0.1 41
2020-01-10 16:00:00 17.6 10 Noroeste 26 Noroeste 0 1016 -0.9 41
2020-01-10 15:00:00 16.4 15 Noroeste 27 Noroeste 0 1016.2 -1.9 47
2020-01-10 14:00:00 16.2 14 Noroeste 23 Noroeste 0 1016.4 -1.8 51
2020-01-10 13:00:00 14.7 15 Noroeste 25 Noroeste 0 1016.9 -0.6 57
2020-01-10 12:00:00 13.3 14 Noroeste 26 Noroeste 0 1018.1 1.4 60
2020-01-10 11:00:00 12.8 15 Oeste 25 Noroeste 0 1018.2 1.8 61
2020-01-10 10:00:00 11.4 11 Oeste 17 Oeste 0 1017.5 1 65
2020-01-10 09:00:00 8.7 7 Sudoeste 15 Oeste 0 1016.7 0 78
2020-01-10 08:00:00 7 7 Sudoeste 23 Sudoeste 0 1016.4 -0.4 86
2020-01-10 07:00:00 7.1 5 Sudoeste 13 Sudoeste 0 1016.5 -0.7 90
2020-01-10 06:00:00 7.1 6 Sudoeste 10 Sudoeste 0 1016.7 -0.8 90
2020-01-10 05:00:00 7.6 6 Oeste 13 Oeste 0 1016.8 -0.5 89
2020-01-10 04:00:00 7.4 9 Oeste 12 Oeste 0 1017.2 -0.4 90
2020-01-10 03:00:00 6.5 3 Sudoeste 10 Oeste 0 1017.5 -1.1 92
2020-01-10 02:00:00 7.2 5 Oeste 10 Oeste 0 1017.3 -0.9 94
2020-01-10 01:00:00 7.8 6 Oeste 9 Oeste 0 1017.6 -0.8 89
2020-01-10 00:00:00 8.9 3 Noroeste 12 Oeste 0 1018.6 -0.6 87
2020-01-09 23:00:00 10.2 6 Oeste 13 Sudoeste 0 1018.2 -1.3 85
2020-01-09 22:00:00 10 3 Noroeste 5 Noroeste 0 1018.4 -0.3 86
2020-01-09 21:00:00 10.1 2 Noroeste 5 Oeste 0 1019.2 0.9 83
2020-01-09 20:00:00 10.7 3 Oeste 10 Sudeste 0 1019.5 1.1 79
2020-01-09 19:00:00 12 2 Norte 9 Sur 0 1018.7 0.2 73
2020-01-09 18:00:00 15.1 3 Sur 7 Sudeste 0 1018.3 -0.5 58
2020-01-09 17:00:00 16.6 2 Norte 9 Sudeste 0 1018.4 -1.2 53
2020-01-09 16:00:00 17.3 3 Sudoeste 10 Sur 0 1018.5 -2.1 50
2020-01-09 15:00:00 16.8 4 Oeste 11 Sudoeste 0 1018.8 -3 52
2020-01-09 14:00:00 16.1 4 Sur 8 Sur 0 1019.6 -2.6 54
2020-01-09 13:00:00 14.7 5 Noroeste 17 Noroeste 0 1020.6 -1.5 59
2020-01-09 12:00:00 12.3 4 Oeste 14 Oeste 0 1021.8 0.2 68
2020-01-09 11:00:00 11.3 9 Oeste 14 Noroeste 0 1022.2 0.7 70
2020-01-09 10:00:00 9.7 5 Oeste 17 Noroeste 0 1022.1 0.3 78
2020-01-09 09:00:00 8.4 6 Noroeste 10 Noroeste 0 1021.6 0.1 85
2020-01-09 08:00:00 8.4 7 Noroeste 10 Noroeste 0 1021.5 -0.3 84
2020-01-09 07:00:00 8.9 3 Noroeste 12 Sudoeste 0 1021.8 -0.4 82
2020-01-09 06:00:00 8.9 8 Oeste 17 Oeste 0 1021.5 -1.1 82
2020-01-09 05:00:00 9.3 6 Oeste 15 Noroeste 0 1021.8 -0.8 81
2020-01-09 04:00:00 9.4 3 Noroeste 14 Noroeste 0 1022.2 -0.7 81
2020-01-09 03:00:00 9.5 2 Noroeste 12 Noroeste 0 1022.6 -0.7 83
2020-01-09 02:00:00 9.8 5 Oeste 10 Oeste 0 1022.6 -1 84
2020-01-09 01:00:00 9.5 0 Calma 10 Sudoeste 0 1022.9 -0.6 84
2020-01-09 00:00:00 9.7 3 Sudoeste 10 Noroeste 0 1023.3 0.1 86
2020-01-08 23:00:00 9.1 4 Sudeste 11 Noroeste 0 1023.6 0.8 88
2020-01-08 22:00:00 9.4 6 Noroeste 9 Noroeste 0 1023.5 0.9 90
2020-01-08 21:00:00 8.5 0 Calma 6 Norte 0 1023.2 0.8 89
2020-01-08 20:00:00 9.5 5 Norte 6 Nordeste 0 1022.8 0.8 84
2020-01-08 19:00:00 10.9 4 Norte 8 Este 0 1022.6 0.9 81
2020-01-08 18:00:00 12.7 6 Nordeste 13 Este 0 1022.4 0.6 74
2020-01-08 17:00:00 14.9 10 Este 18 Nordeste 0 1022 -0.1 65
2020-01-08 16:00:00 15.6 13 Nordeste 20 Nordeste 0 1021.7 -0.9 55
2020-01-08 15:00:00 16 10 Nordeste 18 Este 0 1021.8 -1.3 51
2020-01-08 14:00:00 15.2 9 Este 16 Este 0 1022.1 -0.9 55
2020-01-08 13:00:00 13.8 9 Este 16 Nordeste 0 1022.6 0.2 52
2020-01-08 12:00:00 12.6 5 Este 8 Este 0 1023.1 1.4 58
2020-01-08 11:00:00 9.8 2 Sudeste 8 Sur 0 1023 1.9 70
2020-01-08 10:00:00 5.4 3 Sur 5 Sudoeste 0 1022.4 1.5 84
2020-01-08 09:00:00 1.5 2 Sudoeste 7 Norte 0 1021.7 0.7 89
2020-01-08 08:00:00 2.4 3 Noroeste 9 Noroeste 0 1021.1 0 88
2020-01-08 07:00:00 2.5 3 Oeste 7 Sudoeste 0 1020.9 -0.3 92
2020-01-08 06:00:00 2.2 4 Sudoeste 8 Sudoeste 0 1021 -0.4 90
2020-01-08 05:00:00 2.9 2 Oeste 7 Sudoeste 0 1021.1 -0.4 90
2020-01-08 04:00:00 3.6 4 Sudoeste 7 Oeste 0 1021.2 -0.8 91
2020-01-08 03:00:00 3.7 3 Sudoeste 6 Sur 0 1021.4 -0.9 89
2020-01-08 02:00:00 4.7 3 Sur 8 Oeste 0 1021.5 -1.1 90
2020-01-08 01:00:00 5.6 6 Oeste 9 Sudoeste 0 1022 -0.6 91
2020-01-08 00:00:00 5.5 0 Calma 10 Oeste 0 1022.3 -0.2 87
2020-01-07 23:00:00 6.7 6 Oeste 9 Noroeste 0 1022.6 0.1 90
2020-01-07 22:00:00 7.2 3 Oeste 5 Oeste 0 1022.6 0.5 92
2020-01-07 21:00:00 8.2 2 Oeste 7 Sudoeste 0 1022.5 0.6 86
2020-01-07 20:00:00 9.9 4 Sudoeste 5 Sudoeste 0 1022.5 0.8 85
2020-01-07 19:00:00 11.6 4 Oeste 10 Sudoeste 0 1022.1 0.4 73
2020-01-07 18:00:00 14 4 Nordeste 6 Nordeste 0 1021.9 -0.1 58
2020-01-07 17:00:00 16.2 2 Nordeste 5 Nordeste 0 1021.7 -1.1 47
2020-01-07 16:00:00 17.4 4 Sudeste 7 Sur 0 1021.7 -2.3 43
2020-01-07 15:00:00 16.4 5 Sudoeste 10 Sudoeste 0 1022 -3.1 45
2020-01-07 14:00:00 15.1 4 Oeste 10 Sur 0 1022.8 -2.8 51
2020-01-07 13:00:00 13.3 3 Noroeste 8 Noroeste 0 1024 -1.1 57
2020-01-07 12:00:00 11.1 4 Sudoeste 10 Sudoeste 0 1025.1 0.5 61
2020-01-07 11:00:00 8.4 6 Sur 9 Sur 0 1025.6 1.2 72
2020-01-07 10:00:00 6.5 0 Calma 11 Oeste 0 1025.1 1.5 77
2020-01-07 09:00:00 2.4 7 Sudoeste 10 Sudoeste 0 1024.6 1 91
2020-01-07 08:00:00 0.7 3 Sudeste 6 Sudeste 0 1024.4 0.8 92
2020-01-07 07:00:00 2.6 3 Sudoeste 8 Noroeste 0 1023.6 -0.1 89
2020-01-07 06:00:00 2.9 3 Sudoeste 9 Sudoeste 0 1023.6 0.2 85
2020-01-07 05:00:00 3.9 4 Sudoeste 8 Sudoeste 0 1023.6 0.4 87
2020-01-07 04:00:00 4.6 5 Oeste 8 Oeste 0 1023.7 0.5 87
2020-01-07 03:00:00 4.9 4 Sudoeste 12 Noroeste 0 1023.4 0.3 87
2020-01-07 02:00:00 4.2 4 Oeste 10 Noroeste 0 1023.2 0.3 90
2020-01-07 01:00:00 4.8 4 Noroeste 10 Oeste 0 1023.2 0.7 88
2020-01-07 00:00:00 5.7 5 Sudoeste 7 Sudoeste 0 1023.1 1 89
2020-01-06 23:00:00 6.1 3 Oeste 7 Oeste 0 1022.9 0.9 88
2020-01-06 22:00:00 6.6 3 Sudoeste 5 Noroeste 0 1022.5 1.2 89
2020-01-06 21:00:00 7.6 0 Calma 7 Sudoeste 0 1022.1 1.2 85
2020-01-06 20:00:00 8.9 5 Oeste 9 Sudoeste 0 1022 1.2 81
2020-01-06 19:00:00 10.6 4 Oeste 6 Sudoeste 0 1021.3 0.6 71
2020-01-06 18:00:00 13.6 3 Norte 8 Nordeste 0 1020.9 0.2 59
2020-01-06 17:00:00 15.9 6 Este 8 Este 0 1020.8 -0.4 51
2020-01-06 16:00:00 16.3 5 Nordeste 8 Sudeste 0 1020.7 -1.7 46
2020-01-06 15:00:00 16.8 4 Sur 8 Este 0 1020.7 -2.8 45
2020-01-06 14:00:00 14.8 5 Este 8 Este 0 1021.2 -2.4 50
2020-01-06 13:00:00 13.8 0 Calma 8 Sudoeste 0 1022.4 -1.2 52
2020-01-06 12:00:00 11.6 4 Sur 8 Oeste 0 1023.5 0.4 59
2020-01-06 11:00:00 8.5 7 Noroeste 12 Noroeste 0 1023.6 1.2 68
2020-01-06 10:00:00 4.8 4 Sur 7 Noroeste 0 1023.6 1.6 85